Terminal Aerodrome Forecast
Issued by NWS Brownsville, TX

Home | Current Version | Previous Version | Text Only | Print | Product List | Glossary On
Versions: 1 2 3 4 5 6 7 8 9 10 11 12 13 14 15 16 17 18 19
000
FTUS44 KBRO 261741
TAFMFE
TAF
KMFE 261741Z 2618/2718 15015G22KT P6SM SCT035 BKN060
     FM262100 15014KT P6SM SCT060
     FM270400 16008KT P6SM FEW025
      TEMPO 2708/2712 5SM BR BKN018
     FM271400 16010KT P6SM SCT030=

USA.gov is the U.S. government's official web portal to all federal, state and local government web resources and services.